sensor_id;sensor_type;location;lat;lon;timestamp;P1;durP1;ratioP1;P2;durP2;ratioP2
40907;SDS011;51055;59.436;24.778;2022-10-31T00:03:45;7.13;;;1.20;;
40907;SDS011;51055;59.436;24.778;2022-10-31T00:06:13;7.63;;;1.40;;
40907;SDS011;51055;59.436;24.778;2022-10-31T00:08:41;8.25;;;1.70;;
40907;SDS011;51055;59.436;24.778;2022-10-31T00:11:09;8.30;;;1.58;;
40907;SDS011;51055;59.436;24.778;2022-10-31T00:13:37;8.45;;;1.50;;
40907;SDS011;51055;59.436;24.778;2022-10-31T00:16:06;7.53;;;1.98;;
40907;SDS011;51055;59.436;24.778;2022-10-31T00:18:40;5.05;;;1.25;;
40907;SDS011;51055;59.436;24.778;2022-10-31T00:21:08;8.88;;;1.52;;
40907;SDS011;51055;59.436;24.778;2022-10-31T00:23:35;5.45;;;1.30;;
40907;SDS011;51055;59.436;24.778;2022-10-31T00:26:03;9.05;;;1.45;;
40907;SDS011;51055;59.436;24.778;2022-10-31T00:28:32;7.85;;;1.50;;
40907;SDS011;51055;59.436;24.778;2022-10-31T00:31:01;6.80;;;1.38;;
40907;SDS011;51055;59.436;24.778;2022-10-31T00:33:32;6.03;;;1.33;;
40907;SDS011;51055;59.436;24.778;2022-10-31T00:36:02;7.85;;;1.33;;
40907;SDS011;51055;59.436;24.778;2022-10-31T00:38:30;5.88;;;2.00;;
40907;SDS011;51055;59.436;24.778;2022-10-31T00:40:58;6.28;;;1.23;;
40907;SDS011;51055;59.436;24.778;2022-10-31T00:43:26;5.17;;;1.00;;
40907;SDS011;51055;59.436;24.778;2022-10-31T00:45:54;5.72;;;1.50;;
40907;SDS011;51055;59.436;24.778;2022-10-31T00:48:21;6.68;;;1.40;;
40907;SDS011;51055;59.436;24.778;2022-10-31T00:50:49;7.32;;;1.52;;
40907;SDS011;51055;59.436;24.778;2022-10-31T00:53:17;5.25;;;1.13;;
40907;SDS011;51055;59.436;24.778;2022-10-31T00:55:44;3.63;;;1.02;;
40907;SDS011;51055;59.436;24.778;2022-10-31T00:58:12;8.40;;;1.63;;
40907;SDS011;51055;59.436;24.778;2022-10-31T01:00:40;7.57;;;1.27;;
40907;SDS011;51055;59.436;24.778;2022-10-31T01:03:08;6.10;;;1.38;;
40907;SDS011;51055;59.436;24.778;2022-10-31T01:05:36;4.10;;;0.93;;
40907;SDS011;51055;59.436;24.778;2022-10-31T01:08:04;6.80;;;1.40;;
40907;SDS011;51055;59.436;24.778;2022-10-31T01:10:31;3.72;;;1.10;;
40907;SDS011;51055;59.436;24.778;2022-10-31T01:12:59;7.72;;;1.30;;
40907;SDS011;51055;59.436;24.778;2022-10-31T01:15:27;3.60;;;1.00;;
40907;SDS011;51055;59.436;24.778;2022-10-31T01:17:54;4.18;;;1.23;;
40907;SDS011;51055;59.436;24.778;2022-10-31T01:20:22;8.50;;;1.95;;
40907;SDS011;51055;59.436;24.778;2022-10-31T01:22:50;5.28;;;1.10;;
40907;SDS011;51055;59.436;24.778;2022-10-31T01:25:17;8.40;;;1.25;;
40907;SDS011;51055;59.436;24.778;2022-10-31T01:27:45;8.73;;;1.33;;
40907;SDS011;51055;59.436;24.778;2022-10-31T01:30:13;7.03;;;1.45;;
40907;SDS011;51055;59.436;24.778;2022-10-31T01:32:40;4.32;;;0.93;;
40907;SDS011;51055;59.436;24.778;2022-10-31T01:35:08;5.82;;;1.30;;
40907;SDS011;51055;59.436;24.778;2022-10-31T01:37:35;6.20;;;1.25;;
40907;SDS011;51055;59.436;24.778;2022-10-31T01:40:03;5.25;;;1.27;;
40907;SDS011;51055;59.436;24.778;2022-10-31T01:42:31;7.55;;;1.50;;
40907;SDS011;51055;59.436;24.778;2022-10-31T01:44:59;7.95;;;1.52;;
40907;SDS011;51055;59.436;24.778;2022-10-31T01:47:33;5.97;;;1.40;;
40907;SDS011;51055;59.436;24.778;2022-10-31T01:52:59;4.80;;;1.27;;
40907;SDS011;51055;59.436;24.778;2022-10-31T01:55:28;4.30;;;0.95;;
40907;SDS011;51055;59.436;24.778;2022-10-31T01:58:07;6.93;;;1.20;;
40907;SDS011;51055;59.436;24.778;2022-10-31T02:00:41;5.15;;;1.20;;
40907;SDS011;51055;59.436;24.778;2022-10-31T02:03:13;6.50;;;1.35;;
40907;SDS011;51055;59.436;24.778;2022-10-31T02:05:41;5.50;;;1.40;;
40907;SDS011;51055;59.436;24.778;2022-10-31T02:08:17;6.85;;;1.30;;
40907;SDS011;51055;59.436;24.778;2022-10-31T02:10:49;4.85;;;1.20;;
40907;SDS011;51055;59.436;24.778;2022-10-31T02:13:17;4.05;;;1.02;;
40907;SDS011;51055;59.436;24.778;2022-10-31T02:15:47;5.50;;;1.27;;
40907;SDS011;51055;59.436;24.778;2022-10-31T02:18:21;6.88;;;1.20;;
40907;SDS011;51055;59.436;24.778;2022-10-31T02:21:02;6.55;;;1.50;;
40907;SDS011;51055;59.436;24.778;2022-10-31T02:35:23;6.18;;;1.30;;
40907;SDS011;51055;59.436;24.778;2022-10-31T02:43:40;3.20;;;1.00;;
40907;SDS011;51055;59.436;24.778;2022-10-31T02:48:51;5.07;;;1.15;;
40907;SDS011;51055;59.436;24.778;2022-10-31T02:51:22;4.05;;;1.30;;
40907;SDS011;51055;59.436;24.778;2022-10-31T02:53:50;4.43;;;1.23;;
40907;SDS011;51055;59.436;24.778;2022-10-31T02:56:18;3.03;;;0.82;;
40907;SDS011;51055;59.436;24.778;2022-10-31T02:58:51;5.63;;;1.05;;
40907;SDS011;51055;59.436;24.778;2022-10-31T03:01:33;2.47;;;1.05;;
40907;SDS011;51055;59.436;24.778;2022-10-31T03:04:16;3.33;;;1.10;;
40907;SDS011;51055;59.436;24.778;2022-10-31T03:06:52;4.88;;;1.27;;
40907;SDS011;51055;59.436;24.778;2022-10-31T03:14:53;6.03;;;1.40;;
40907;SDS011;51055;59.436;24.778;2022-10-31T03:17:36;4.95;;;1.33;;
40907;SDS011;51055;59.436;24.778;2022-10-31T03:20:09;4.40;;;1.00;;
40907;SDS011;51055;59.436;24.778;2022-10-31T03:22:37;3.83;;;0.95;;
40907;SDS011;51055;59.436;24.778;2022-10-31T03:25:09;4.20;;;1.30;;
40907;SDS011;51055;59.436;24.778;2022-10-31T03:27:39;7.47;;;1.40;;
40907;SDS011;51055;59.436;24.778;2022-10-31T03:30:09;6.55;;;1.15;;
40907;SDS011;51055;59.436;24.778;2022-10-31T03:32:41;3.72;;;1.30;;
40907;SDS011;51055;59.436;24.778;2022-10-31T03:35:14;6.47;;;1.40;;
40907;SDS011;51055;59.436;24.778;2022-10-31T03:37:45;5.88;;;1.40;;
40907;SDS011;51055;59.436;24.778;2022-10-31T03:40:15;3.22;;;1.02;;
40907;SDS011;51055;59.436;24.778;2022-10-31T03:42:53;5.55;;;1.05;;
40907;SDS011;51055;59.436;24.778;2022-10-31T03:45:25;3.60;;;1.20;;
40907;SDS011;51055;59.436;24.778;2022-10-31T03:47:57;6.30;;;1.25;;
40907;SDS011;51055;59.436;24.778;2022-10-31T03:50:29;6.60;;;1.55;;
40907;SDS011;51055;59.436;24.778;2022-10-31T03:53:13;3.78;;;1.10;;
40907;SDS011;51055;59.436;24.778;2022-10-31T03:55:50;3.50;;;1.20;;
40907;SDS011;51055;59.436;24.778;2022-10-31T03:58:29;8.15;;;1.35;;
40907;SDS011;51055;59.436;24.778;2022-10-31T04:01:05;4.97;;;1.20;;
40907;SDS011;51055;59.436;24.778;2022-10-31T04:03:36;5.57;;;1.35;;
40907;SDS011;51055;59.436;24.778;2022-10-31T04:06:06;5.00;;;1.60;;
40907;SDS011;51055;59.436;24.778;2022-10-31T04:08:40;9.77;;;1.60;;
40907;SDS011;51055;59.436;24.778;2022-10-31T04:11:12;6.30;;;1.67;;
40907;SDS011;51055;59.436;24.778;2022-10-31T04:13:43;4.78;;;1.40;;
40907;SDS011;51055;59.436;24.778;2022-10-31T04:16:13;6.63;;;1.58;;
40907;SDS011;51055;59.436;24.778;2022-10-31T04:18:43;4.05;;;1.50;;
40907;SDS011;51055;59.436;24.778;2022-10-31T04:21:11;9.00;;;1.75;;
40907;SDS011;51055;59.436;24.778;2022-10-31T04:23:39;6.97;;;1.50;;
40907;SDS011;51055;59.436;24.778;2022-10-31T04:26:07;6.80;;;1.77;;
40907;SDS011;51055;59.436;24.778;2022-10-31T04:28:37;6.07;;;1.73;;
40907;SDS011;51055;59.436;24.778;2022-10-31T04:31:05;5.65;;;2.03;;
40907;SDS011;51055;59.436;24.778;2022-10-31T04:33:32;5.22;;;1.67;;
40907;SDS011;51055;59.436;24.778;2022-10-31T04:36:00;9.27;;;1.70;;
40907;SDS011;51055;59.436;24.778;2022-10-31T04:38:28;5.70;;;1.48;;
40907;SDS011;51055;59.436;24.778;2022-10-31T04:40:55;6.90;;;1.30;;
40907;SDS011;51055;59.436;24.778;2022-10-31T04:43:23;5.85;;;1.67;;
40907;SDS011;51055;59.436;24.778;2022-10-31T04:45:51;6.75;;;1.75;;
40907;SDS011;51055;59.436;24.778;2022-10-31T04:48:18;8.02;;;1.63;;
40907;SDS011;51055;59.436;24.778;2022-10-31T04:50:46;3.70;;;1.50;;
40907;SDS011;51055;59.436;24.778;2022-10-31T04:53:14;9.00;;;1.70;;
40907;SDS011;51055;59.436;24.778;2022-10-31T04:55:41;7.68;;;1.77;;
40907;SDS011;51055;59.436;24.778;2022-10-31T04:58:09;6.57;;;1.95;;
40907;SDS011;51055;59.436;24.778;2022-10-31T05:00:36;12.68;;;2.58;;
40907;SDS011;51055;59.436;24.778;2022-10-31T05:03:04;9.50;;;2.63;;
40907;SDS011;51055;59.436;24.778;2022-10-31T05:05:31;10.80;;;3.03;;
40907;SDS011;51055;59.436;24.778;2022-10-31T05:07:59;8.77;;;2.83;;
40907;SDS011;51055;59.436;24.778;2022-10-31T05:10:28;10.52;;;4.10;;
40907;SDS011;51055;59.436;24.778;2022-10-31T05:12:57;13.43;;;3.67;;
40907;SDS011;51055;59.436;24.778;2022-10-31T05:15:28;12.45;;;3.95;;
40907;SDS011;51055;59.436;24.778;2022-10-31T05:17:56;13.13;;;3.97;;
40907;SDS011;51055;59.436;24.778;2022-10-31T05:20:26;12.07;;;3.90;;
40907;SDS011;51055;59.436;24.778;2022-10-31T05:22:55;7.05;;;2.88;;
40907;SDS011;51055;59.436;24.778;2022-10-31T05:27:53;14.48;;;4.30;;
40907;SDS011;51055;59.436;24.778;2022-10-31T05:30:24;12.43;;;4.05;;
40907;SDS011;51055;59.436;24.778;2022-10-31T05:32:56;10.60;;;3.92;;
40907;SDS011;51055;59.436;24.778;2022-10-31T05:35:26;13.02;;;3.90;;
40907;SDS011;51055;59.436;24.778;2022-10-31T05:38:00;13.20;;;5.05;;
40907;SDS011;51055;59.436;24.778;2022-10-31T05:40:28;12.05;;;4.10;;
40907;SDS011;51055;59.436;24.778;2022-10-31T05:42:56;18.58;;;5.90;;
40907;SDS011;51055;59.436;24.778;2022-10-31T05:45:26;12.43;;;4.32;;
40907;SDS011;51055;59.436;24.778;2022-10-31T05:47:57;12.95;;;4.20;;
40907;SDS011;51055;59.436;24.778;2022-10-31T05:50:28;14.77;;;4.28;;
40907;SDS011;51055;59.436;24.778;2022-10-31T05:52:58;11.05;;;3.55;;
40907;SDS011;51055;59.436;24.778;2022-10-31T05:55:28;9.52;;;3.92;;
40907;SDS011;51055;59.436;24.778;2022-10-31T05:57:57;13.48;;;4.53;;
40907;SDS011;51055;59.436;24.778;2022-10-31T06:00:25;11.65;;;4.03;;
40907;SDS011;51055;59.436;24.778;2022-10-31T06:02:58;10.60;;;4.25;;
40907;SDS011;51055;59.436;24.778;2022-10-31T06:05:27;11.88;;;4.57;;
40907;SDS011;51055;59.436;24.778;2022-10-31T06:07:56;13.60;;;5.45;;
40907;SDS011;51055;59.436;24.778;2022-10-31T06:10:25;12.57;;;5.65;;
40907;SDS011;51055;59.436;24.778;2022-10-31T06:15:21;22.05;;;8.65;;
40907;SDS011;51055;59.436;24.778;2022-10-31T06:18:25;18.42;;;8.02;;
40907;SDS011;51055;59.436;24.778;2022-10-31T06:20:45;18.77;;;7.85;;
40907;SDS011;51055;59.436;24.778;2022-10-31T06:23:12;20.92;;;8.10;;
40907;SDS011;51055;59.436;24.778;2022-10-31T06:25:40;16.30;;;7.22;;
40907;SDS011;51055;59.436;24.778;2022-10-31T06:28:08;18.15;;;6.90;;
40907;SDS011;51055;59.436;24.778;2022-10-31T06:30:35;17.92;;;8.07;;
40907;SDS011;51055;59.436;24.778;2022-10-31T06:33:04;18.08;;;7.28;;
40907;SDS011;51055;59.436;24.778;2022-10-31T06:35:32;12.82;;;4.90;;
40907;SDS011;51055;59.436;24.778;2022-10-31T06:37:59;17.48;;;6.15;;
40907;SDS011;51055;59.436;24.778;2022-10-31T06:40:27;9.20;;;4.47;;
40907;SDS011;51055;59.436;24.778;2022-10-31T06:42:56;25.00;;;7.47;;
40907;SDS011;51055;59.436;24.778;2022-10-31T06:45:25;19.20;;;8.13;;
40907;SDS011;51055;59.436;24.778;2022-10-31T06:47:53;18.60;;;8.82;;
40907;SDS011;51055;59.436;24.778;2022-10-31T06:50:41;17.73;;;7.32;;
40907;SDS011;51055;59.436;24.778;2022-10-31T06:53:09;16.30;;;6.05;;
40907;SDS011;51055;59.436;24.778;2022-10-31T06:55:41;19.70;;;6.10;;
40907;SDS011;51055;59.436;24.778;2022-10-31T06:58:10;11.43;;;4.30;;
40907;SDS011;51055;59.436;24.778;2022-10-31T07:00:38;15.20;;;5.22;;
40907;SDS011;51055;59.436;24.778;2022-10-31T07:03:07;13.63;;;5.38;;
40907;SDS011;51055;59.436;24.778;2022-10-31T07:05:38;24.60;;;5.95;;
40907;SDS011;51055;59.436;24.778;2022-10-31T07:08:06;18.70;;;6.25;;
40907;SDS011;51055;59.436;24.778;2022-10-31T07:10:36;20.95;;;6.93;;
40907;SDS011;51055;59.436;24.778;2022-10-31T07:13:13;19.02;;;7.30;;
40907;SDS011;51055;59.436;24.778;2022-10-31T07:15:43;18.70;;;6.80;;
40907;SDS011;51055;59.436;24.778;2022-10-31T07:18:11;17.63;;;6.28;;
40907;SDS011;51055;59.436;24.778;2022-10-31T07:20:39;14.93;;;4.90;;
40907;SDS011;51055;59.436;24.778;2022-10-31T07:23:07;25.30;;;6.40;;
40907;SDS011;51055;59.436;24.778;2022-10-31T07:25:38;14.95;;;5.45;;
40907;SDS011;51055;59.436;24.778;2022-10-31T07:28:07;18.95;;;5.53;;
40907;SDS011;51055;59.436;24.778;2022-10-31T07:30:35;19.05;;;5.43;;
40907;SDS011;51055;59.436;24.778;2022-10-31T07:33:03;17.70;;;5.63;;
40907;SDS011;51055;59.436;24.778;2022-10-31T07:35:31;18.37;;;5.10;;
40907;SDS011;51055;59.436;24.778;2022-10-31T07:38:06;16.52;;;6.03;;
40907;SDS011;51055;59.436;24.778;2022-10-31T07:40:35;15.18;;;4.90;;
40907;SDS011;51055;59.436;24.778;2022-10-31T07:43:03;14.93;;;4.60;;
40907;SDS011;51055;59.436;24.778;2022-10-31T07:45:40;12.00;;;5.45;;
40907;SDS011;51055;59.436;24.778;2022-10-31T07:48:07;11.02;;;4.63;;
40907;SDS011;51055;59.436;24.778;2022-10-31T07:50:35;13.32;;;4.50;;
40907;SDS011;51055;59.436;24.778;2022-10-31T07:53:04;20.42;;;6.00;;
40907;SDS011;51055;59.436;24.778;2022-10-31T07:55:36;27.60;;;5.90;;
40907;SDS011;51055;59.436;24.778;2022-10-31T07:58:06;20.13;;;4.97;;
40907;SDS011;51055;59.436;24.778;2022-10-31T08:00:35;12.52;;;5.97;;
40907;SDS011;51055;59.436;24.778;2022-10-31T08:03:09;23.63;;;7.82;;
40907;SDS011;51055;59.436;24.778;2022-10-31T08:05:38;15.45;;;6.70;;
40907;SDS011;51055;59.436;24.778;2022-10-31T08:08:08;10.75;;;4.20;;
40907;SDS011;51055;59.436;24.778;2022-10-31T08:10:36;13.40;;;3.70;;
40907;SDS011;51055;59.436;24.778;2022-10-31T08:15:34;12.68;;;3.80;;
40907;SDS011;51055;59.436;24.778;2022-10-31T08:18:05;11.10;;;3.78;;
40907;SDS011;51055;59.436;24.778;2022-10-31T08:20:34;10.90;;;3.38;;
40907;SDS011;51055;59.436;24.778;2022-10-31T08:23:02;8.93;;;3.17;;
40907;SDS011;51055;59.436;24.778;2022-10-31T08:25:32;14.45;;;3.80;;
40907;SDS011;51055;59.436;24.778;2022-10-31T08:28:05;10.00;;;4.03;;
40907;SDS011;51055;59.436;24.778;2022-10-31T08:30:35;11.10;;;3.45;;
40907;SDS011;51055;59.436;24.778;2022-10-31T08:33:09;10.48;;;3.72;;
40907;SDS011;51055;59.436;24.778;2022-10-31T08:35:38;11.18;;;3.65;;
40907;SDS011;51055;59.436;24.778;2022-10-31T08:38:08;10.88;;;3.63;;
40907;SDS011;51055;59.436;24.778;2022-10-31T08:40:37;9.60;;;3.22;;
40907;SDS011;51055;59.436;24.778;2022-10-31T08:43:06;10.00;;;3.22;;
40907;SDS011;51055;59.436;24.778;2022-10-31T08:45:39;10.98;;;3.22;;
40907;SDS011;51055;59.436;24.778;2022-10-31T08:48:09;7.68;;;2.65;;
40907;SDS011;51055;59.436;24.778;2022-10-31T08:50:38;8.43;;;3.35;;
40907;SDS011;51055;59.436;24.778;2022-10-31T08:53:16;5.70;;;2.63;;
40907;SDS011;51055;59.436;24.778;2022-10-31T08:55:46;11.75;;;3.30;;
40907;SDS011;51055;59.436;24.778;2022-10-31T08:58:17;8.43;;;3.08;;
40907;SDS011;51055;59.436;24.778;2022-10-31T09:00:47;8.02;;;2.22;;
40907;SDS011;51055;59.436;24.778;2022-10-31T09:03:17;8.45;;;3.35;;
40907;SDS011;51055;59.436;24.778;2022-10-31T09:05:46;9.00;;;4.13;;
40907;SDS011;51055;59.436;24.778;2022-10-31T09:08:14;10.02;;;3.85;;
40907;SDS011;51055;59.436;24.778;2022-10-31T09:10:43;13.05;;;5.35;;
40907;SDS011;51055;59.436;24.778;2022-10-31T09:13:13;12.25;;;5.30;;
40907;SDS011;51055;59.436;24.778;2022-10-31T09:15:43;12.32;;;5.10;;
40907;SDS011;51055;59.436;24.778;2022-10-31T09:18:12;12.38;;;4.78;;
40907;SDS011;51055;59.436;24.778;2022-10-31T09:20:43;9.63;;;4.00;;
40907;SDS011;51055;59.436;24.778;2022-10-31T09:23:13;13.88;;;4.95;;
40907;SDS011;51055;59.436;24.778;2022-10-31T09:25:42;10.93;;;4.68;;
40907;SDS011;51055;59.436;24.778;2022-10-31T09:28:17;8.88;;;3.90;;
40907;SDS011;51055;59.436;24.778;2022-10-31T09:30:48;11.65;;;5.57;;
40907;SDS011;51055;59.436;24.778;2022-10-31T09:33:18;11.93;;;5.03;;
40907;SDS011;51055;59.436;24.778;2022-10-31T09:35:46;7.25;;;3.35;;
40907;SDS011;51055;59.436;24.778;2022-10-31T09:38:15;8.95;;;3.80;;
40907;SDS011;51055;59.436;24.778;2022-10-31T09:40:47;13.27;;;4.25;;
40907;SDS011;51055;59.436;24.778;2022-10-31T09:52:03;6.07;;;1.70;;
40907;SDS011;51055;59.436;24.778;2022-10-31T09:54:45;6.85;;;1.90;;
40907;SDS011;51055;59.436;24.778;2022-10-31T09:57:18;9.43;;;1.98;;
40907;SDS011;51055;59.436;24.778;2022-10-31T09:59:52;7.43;;;1.70;;
40907;SDS011;51055;59.436;24.778;2022-10-31T10:02:30;5.15;;;1.83;;
40907;SDS011;51055;59.436;24.778;2022-10-31T10:05:06;5.75;;;1.63;;
40907;SDS011;51055;59.436;24.778;2022-10-31T10:10:30;5.93;;;1.42;;
40907;SDS011;51055;59.436;24.778;2022-10-31T10:21:39;7.97;;;1.65;;
40907;SDS011;51055;59.436;24.778;2022-10-31T10:30:00;5.60;;;1.42;;
40907;SDS011;51055;59.436;24.778;2022-10-31T10:32:43;6.70;;;1.90;;
40907;SDS011;51055;59.436;24.778;2022-10-31T10:35:23;5.85;;;1.90;;
40907;SDS011;51055;59.436;24.778;2022-10-31T10:37:59;7.05;;;1.48;;
40907;SDS011;51055;59.436;24.778;2022-10-31T10:40:36;4.72;;;1.25;;
40907;SDS011;51055;59.436;24.778;2022-10-31T10:45:56;4.55;;;1.48;;
40907;SDS011;51055;59.436;24.778;2022-10-31T10:57:54;6.70;;;1.17;;
40907;SDS011;51055;59.436;24.778;2022-10-31T11:00:31;4.68;;;1.30;;
40907;SDS011;51055;59.436;24.778;2022-10-31T11:03:07;6.57;;;1.48;;
40907;SDS011;51055;59.436;24.778;2022-10-31T11:08:08;8.55;;;1.60;;
40907;SDS011;51055;59.436;24.778;2022-10-31T11:10:35;8.15;;;2.10;;
40907;SDS011;51055;59.436;24.778;2022-10-31T11:18:27;6.15;;;1.40;;
40907;SDS011;51055;59.436;24.778;2022-10-31T11:20:59;6.93;;;1.50;;
40907;SDS011;51055;59.436;24.778;2022-10-31T11:23:27;6.70;;;1.20;;
40907;SDS011;51055;59.436;24.778;2022-10-31T11:25:56;3.60;;;1.10;;
40907;SDS011;51055;59.436;24.778;2022-10-31T11:28:26;2.95;;;1.35;;
40907;SDS011;51055;59.436;24.778;2022-10-31T11:31:00;4.95;;;1.30;;
40907;SDS011;51055;59.436;24.778;2022-10-31T11:36:22;9.18;;;1.83;;
40907;SDS011;51055;59.436;24.778;2022-10-31T11:38:52;5.22;;;1.25;;
40907;SDS011;51055;59.436;24.778;2022-10-31T11:41:25;3.92;;;1.23;;
40907;SDS011;51055;59.436;24.778;2022-10-31T11:43:54;6.25;;;1.70;;
40907;SDS011;51055;59.436;24.778;2022-10-31T11:46:38;5.72;;;1.52;;
40907;SDS011;51055;59.436;24.778;2022-10-31T11:49:13;5.53;;;1.52;;
40907;SDS011;51055;59.436;24.778;2022-10-31T11:51:48;5.65;;;1.48;;
40907;SDS011;51055;59.436;24.778;2022-10-31T11:54:20;4.22;;;1.40;;
40907;SDS011;51055;59.436;24.778;2022-10-31T11:56:53;5.05;;;1.52;;
40907;SDS011;51055;59.436;24.778;2022-10-31T11:59:25;6.82;;;1.60;;
40907;SDS011;51055;59.436;24.778;2022-10-31T12:01:56;7.65;;;1.58;;
40907;SDS011;51055;59.436;24.778;2022-10-31T12:04:37;5.85;;;1.65;;
40907;SDS011;51055;59.436;24.778;2022-10-31T12:07:06;5.68;;;1.90;;
40907;SDS011;51055;59.436;24.778;2022-10-31T12:09:35;3.55;;;1.20;;
40907;SDS011;51055;59.436;24.778;2022-10-31T12:17:46;4.97;;;1.27;;
40907;SDS011;51055;59.436;24.778;2022-10-31T12:20:38;3.90;;;1.20;;
40907;SDS011;51055;59.436;24.778;2022-10-31T12:26:31;5.90;;;1.50;;
40907;SDS011;51055;59.436;24.778;2022-10-31T12:34:56;4.28;;;1.38;;
40907;SDS011;51055;59.436;24.778;2022-10-31T12:44:01;6.32;;;1.60;;
40907;SDS011;51055;59.436;24.778;2022-10-31T12:57:27;8.93;;;1.92;;
40907;SDS011;51055;59.436;24.778;2022-10-31T13:00:02;7.03;;;1.70;;
40907;SDS011;51055;59.436;24.778;2022-10-31T13:02:32;6.68;;;1.90;;
40907;SDS011;51055;59.436;24.778;2022-10-31T13:07:53;5.20;;;1.67;;
40907;SDS011;51055;59.436;24.778;2022-10-31T13:10:36;7.15;;;1.77;;
40907;SDS011;51055;59.436;24.778;2022-10-31T13:13:12;6.82;;;2.13;;
40907;SDS011;51055;59.436;24.778;2022-10-31T13:15:48;5.80;;;1.90;;
40907;SDS011;51055;59.436;24.778;2022-10-31T13:18:22;6.57;;;1.95;;
40907;SDS011;51055;59.436;24.778;2022-10-31T13:20:55;11.55;;;2.65;;
40907;SDS011;51055;59.436;24.778;2022-10-31T13:23:29;5.72;;;2.00;;
40907;SDS011;51055;59.436;24.778;2022-10-31T13:26:30;5.68;;;1.90;;
40907;SDS011;51055;59.436;24.778;2022-10-31T13:29:05;6.25;;;1.63;;
40907;SDS011;51055;59.436;24.778;2022-10-31T13:31:42;9.30;;;2.20;;
40907;SDS011;51055;59.436;24.778;2022-10-31T13:34:16;6.22;;;2.30;;
40907;SDS011;51055;59.436;24.778;2022-10-31T13:36:48;8.50;;;2.85;;
40907;SDS011;51055;59.436;24.778;2022-10-31T13:44:36;9.48;;;4.82;;
40907;SDS011;51055;59.436;24.778;2022-10-31T13:47:23;12.45;;;5.50;;
40907;SDS011;51055;59.436;24.778;2022-10-31T13:56:15;7.43;;;3.05;;
40907;SDS011;51055;59.436;24.778;2022-10-31T14:01:27;9.48;;;4.43;;
40907;SDS011;51055;59.436;24.778;2022-10-31T14:06:54;8.25;;;3.58;;
40907;SDS011;51055;59.436;24.778;2022-10-31T14:09:35;10.25;;;4.00;;
40907;SDS011;51055;59.436;24.778;2022-10-31T14:12:21;8.18;;;2.80;;
40907;SDS011;51055;59.436;24.778;2022-10-31T14:14:50;5.95;;;1.98;;
40907;SDS011;51055;59.436;24.778;2022-10-31T14:17:25;11.05;;;5.40;;
40907;SDS011;51055;59.436;24.778;2022-10-31T14:22:39;6.93;;;2.72;;
40907;SDS011;51055;59.436;24.778;2022-10-31T14:27:55;9.98;;;4.07;;
40907;SDS011;51055;59.436;24.778;2022-10-31T14:30:24;13.93;;;4.55;;
40907;SDS011;51055;59.436;24.778;2022-10-31T14:33:09;8.23;;;3.15;;
40907;SDS011;51055;59.436;24.778;2022-10-31T14:35:51;11.25;;;4.10;;
40907;SDS011;51055;59.436;24.778;2022-10-31T14:38:26;8.48;;;3.00;;
40907;SDS011;51055;59.436;24.778;2022-10-31T14:51:47;7.40;;;2.83;;
40907;SDS011;51055;59.436;24.778;2022-10-31T14:54:19;7.20;;;2.35;;
40907;SDS011;51055;59.436;24.778;2022-10-31T14:56:56;5.13;;;1.40;;
40907;SDS011;51055;59.436;24.778;2022-10-31T14:59:30;8.82;;;2.72;;
40907;SDS011;51055;59.436;24.778;2022-10-31T15:02:15;7.35;;;2.60;;
40907;SDS011;51055;59.436;24.778;2022-10-31T15:04:48;12.77;;;2.75;;
40907;SDS011;51055;59.436;24.778;2022-10-31T15:07:21;7.95;;;2.08;;
40907;SDS011;51055;59.436;24.778;2022-10-31T15:09:58;8.27;;;2.60;;
40907;SDS011;51055;59.436;24.778;2022-10-31T15:14:57;5.57;;;2.03;;
40907;SDS011;51055;59.436;24.778;2022-10-31T15:17:41;5.82;;;2.53;;
40907;SDS011;51055;59.436;24.778;2022-10-31T15:20:17;7.50;;;1.63;;
40907;SDS011;51055;59.436;24.778;2022-10-31T15:22:47;7.15;;;1.48;;
40907;SDS011;51055;59.436;24.778;2022-10-31T15:25:19;9.13;;;3.42;;
40907;SDS011;51055;59.436;24.778;2022-10-31T15:27:49;5.85;;;2.10;;
40907;SDS011;51055;59.436;24.778;2022-10-31T15:32:47;7.70;;;2.38;;
40907;SDS011;51055;59.436;24.778;2022-10-31T15:35:28;7.53;;;1.95;;
40907;SDS011;51055;59.436;24.778;2022-10-31T15:37:57;6.97;;;2.17;;
40907;SDS011;51055;59.436;24.778;2022-10-31T15:40:27;4.88;;;2.15;;
40907;SDS011;51055;59.436;24.778;2022-10-31T15:43:01;9.80;;;2.07;;
40907;SDS011;51055;59.436;24.778;2022-10-31T15:45:32;3.70;;;1.60;;
40907;SDS011;51055;59.436;24.778;2022-10-31T15:48:00;5.95;;;2.10;;
40907;SDS011;51055;59.436;24.778;2022-10-31T15:52:59;7.07;;;2.50;;
40907;SDS011;51055;59.436;24.778;2022-10-31T15:55:29;5.93;;;2.40;;
40907;SDS011;51055;59.436;24.778;2022-10-31T15:58:01;6.40;;;2.22;;
40907;SDS011;51055;59.436;24.778;2022-10-31T16:00:33;6.32;;;2.65;;
40907;SDS011;51055;59.436;24.778;2022-10-31T16:05:35;8.32;;;2.65;;
40907;SDS011;51055;59.436;24.778;2022-10-31T16:10:56;5.70;;;2.75;;
40907;SDS011;51055;59.436;24.778;2022-10-31T16:16:23;6.72;;;2.70;;
40907;SDS011;51055;59.436;24.778;2022-10-31T16:19:12;7.32;;;2.35;;
40907;SDS011;51055;59.436;24.778;2022-10-31T16:21:44;5.40;;;2.28;;
40907;SDS011;51055;59.436;24.778;2022-10-31T16:24:22;5.95;;;2.20;;
40907;SDS011;51055;59.436;24.778;2022-10-31T16:27:18;10.07;;;2.70;;
40907;SDS011;51055;59.436;24.778;2022-10-31T16:29:53;6.05;;;2.42;;
40907;SDS011;51055;59.436;24.778;2022-10-31T16:33:19;7.18;;;2.70;;
40907;SDS011;51055;59.436;24.778;2022-10-31T16:35:34;6.20;;;2.15;;
40907;SDS011;51055;59.436;24.778;2022-10-31T16:38:04;6.50;;;2.00;;
40907;SDS011;51055;59.436;24.778;2022-10-31T16:43:01;4.50;;;2.13;;
40907;SDS011;51055;59.436;24.778;2022-10-31T16:45:30;5.35;;;2.00;;
40907;SDS011;51055;59.436;24.778;2022-10-31T16:48:03;8.73;;;2.05;;
40907;SDS011;51055;59.436;24.778;2022-10-31T16:50:33;5.18;;;2.03;;
40907;SDS011;51055;59.436;24.778;2022-10-31T16:53:01;11.25;;;3.13;;
40907;SDS011;51055;59.436;24.778;2022-10-31T16:55:56;8.70;;;2.63;;
40907;SDS011;51055;59.436;24.778;2022-10-31T16:58:26;6.65;;;2.40;;
40907;SDS011;51055;59.436;24.778;2022-10-31T17:00:56;5.82;;;2.20;;
40907;SDS011;51055;59.436;24.778;2022-10-31T17:03:25;7.38;;;2.45;;
40907;SDS011;51055;59.436;24.778;2022-10-31T17:05:53;9.00;;;2.67;;
40907;SDS011;51055;59.436;24.778;2022-10-31T17:08:24;7.90;;;2.42;;
40907;SDS011;51055;59.436;24.778;2022-10-31T17:10:56;7.38;;;2.30;;
40907;SDS011;51055;59.436;24.778;2022-10-31T17:13:26;5.07;;;2.05;;
40907;SDS011;51055;59.436;24.778;2022-10-31T17:16:00;4.18;;;1.92;;
40907;SDS011;51055;59.436;24.778;2022-10-31T17:18:29;7.13;;;2.22;;
40907;SDS011;51055;59.436;24.778;2022-10-31T17:20:58;6.07;;;2.47;;
40907;SDS011;51055;59.436;24.778;2022-10-31T17:23:29;5.38;;;2.08;;
40907;SDS011;51055;59.436;24.778;2022-10-31T17:25:59;5.85;;;2.08;;
40907;SDS011;51055;59.436;24.778;2022-10-31T17:28:32;6.95;;;1.90;;
40907;SDS011;51055;59.436;24.778;2022-10-31T17:31:00;7.25;;;2.00;;
40907;SDS011;51055;59.436;24.778;2022-10-31T17:33:27;7.40;;;2.00;;
40907;SDS011;51055;59.436;24.778;2022-10-31T17:35:55;6.47;;;2.15;;
40907;SDS011;51055;59.436;24.778;2022-10-31T17:38:23;5.07;;;1.77;;
40907;SDS011;51055;59.436;24.778;2022-10-31T17:40:51;5.97;;;1.90;;
40907;SDS011;51055;59.436;24.778;2022-10-31T17:43:19;6.35;;;2.28;;
40907;SDS011;51055;59.436;24.778;2022-10-31T17:45:47;5.32;;;1.70;;
40907;SDS011;51055;59.436;24.778;2022-10-31T17:48:15;7.03;;;1.55;;
40907;SDS011;51055;59.436;24.778;2022-10-31T17:50:43;6.18;;;2.88;;